sensor_id;sensor_type;location;lat;lon;timestamp;P1;durP1;ratioP1;P2;durP2;ratioP2
26038;SDS011;13815;52.374;4.882;2023-07-29T00:00:21;17.73;;;3.33;;
26038;SDS011;13815;52.374;4.882;2023-07-29T00:02:47;13.75;;;3.03;;
26038;SDS011;13815;52.374;4.882;2023-07-29T00:05:12;15.45;;;2.55;;
26038;SDS011;13815;52.374;4.882;2023-07-29T00:07:37;19.40;;;3.10;;
26038;SDS011;13815;52.374;4.882;2023-07-29T00:10:03;12.00;;;2.22;;
26038;SDS011;13815;52.374;4.882;2023-07-29T00:12:28;10.23;;;2.08;;
26038;SDS011;13815;52.374;4.882;2023-07-29T00:14:54;12.38;;;2.38;;
26038;SDS011;13815;52.374;4.882;2023-07-29T00:17:20;15.13;;;3.13;;
26038;SDS011;13815;52.374;4.882;2023-07-29T00:19:45;11.68;;;2.30;;
26038;SDS011;13815;52.374;4.882;2023-07-29T00:22:11;14.85;;;2.92;;
26038;SDS011;13815;52.374;4.882;2023-07-29T00:24:36;12.40;;;2.33;;
26038;SDS011;13815;52.374;4.882;2023-07-29T00:27:02;8.68;;;2.00;;
26038;SDS011;13815;52.374;4.882;2023-07-29T00:29:27;9.95;;;2.45;;
26038;SDS011;13815;52.374;4.882;2023-07-29T00:31:53;22.55;;;3.00;;
26038;SDS011;13815;52.374;4.882;2023-07-29T00:34:18;14.80;;;2.95;;
26038;SDS011;13815;52.374;4.882;2023-07-29T00:36:44;12.60;;;2.17;;
26038;SDS011;13815;52.374;4.882;2023-07-29T00:39:10;7.25;;;1.98;;
26038;SDS011;13815;52.374;4.882;2023-07-29T00:41:36;18.40;;;2.80;;
26038;SDS011;13815;52.374;4.882;2023-07-29T00:44:01;8.98;;;2.28;;
26038;SDS011;13815;52.374;4.882;2023-07-29T00:46:27;18.27;;;3.30;;
26038;SDS011;13815;52.374;4.882;2023-07-29T00:48:53;15.35;;;3.40;;
26038;SDS011;13815;52.374;4.882;2023-07-29T00:51:19;14.57;;;2.30;;
26038;SDS011;13815;52.374;4.882;2023-07-29T00:53:44;16.02;;;2.38;;
26038;SDS011;13815;52.374;4.882;2023-07-29T00:56:10;5.50;;;1.63;;
26038;SDS011;13815;52.374;4.882;2023-07-29T00:58:35;10.40;;;2.10;;
26038;SDS011;13815;52.374;4.882;2023-07-29T01:01:01;14.82;;;2.97;;
26038;SDS011;13815;52.374;4.882;2023-07-29T01:03:26;10.18;;;2.13;;
26038;SDS011;13815;52.374;4.882;2023-07-29T01:11:11;15.40;;;3.15;;
26038;SDS011;13815;52.374;4.882;2023-07-29T01:14:04;16.58;;;2.70;;
26038;SDS011;13815;52.374;4.882;2023-07-29T01:16:46;22.02;;;3.53;;
26038;SDS011;13815;52.374;4.882;2023-07-29T01:19:22;12.77;;;2.28;;
26038;SDS011;13815;52.374;4.882;2023-07-29T01:24:24;16.17;;;3.22;;
26038;SDS011;13815;52.374;4.882;2023-07-29T01:26:50;37.22;;;5.00;;
26038;SDS011;13815;52.374;4.882;2023-07-29T01:29:15;28.58;;;4.13;;
26038;SDS011;13815;52.374;4.882;2023-07-29T01:31:43;13.48;;;2.63;;
26038;SDS011;13815;52.374;4.882;2023-07-29T01:36:40;24.67;;;3.97;;
26038;SDS011;13815;52.374;4.882;2023-07-29T01:39:07;16.20;;;3.33;;
26038;SDS011;13815;52.374;4.882;2023-07-29T01:41:33;18.80;;;2.78;;
26038;SDS011;13815;52.374;4.882;2023-07-29T01:43:59;14.00;;;2.70;;
26038;SDS011;13815;52.374;4.882;2023-07-29T01:46:25;13.90;;;2.22;;
26038;SDS011;13815;52.374;4.882;2023-07-29T01:48:50;6.95;;;2.28;;
26038;SDS011;13815;52.374;4.882;2023-07-29T01:51:15;11.05;;;2.63;;
26038;SDS011;13815;52.374;4.882;2023-07-29T01:53:41;17.88;;;3.05;;
26038;SDS011;13815;52.374;4.882;2023-07-29T01:56:06;16.70;;;2.55;;
26038;SDS011;13815;52.374;4.882;2023-07-29T01:58:31;16.45;;;3.10;;
26038;SDS011;13815;52.374;4.882;2023-07-29T02:00:57;9.18;;;2.67;;
26038;SDS011;13815;52.374;4.882;2023-07-29T02:03:22;10.25;;;2.40;;
26038;SDS011;13815;52.374;4.882;2023-07-29T02:05:47;14.57;;;2.58;;
26038;SDS011;13815;52.374;4.882;2023-07-29T02:08:13;13.02;;;3.22;;
26038;SDS011;13815;52.374;4.882;2023-07-29T02:10:39;16.25;;;3.25;;
26038;SDS011;13815;52.374;4.882;2023-07-29T02:13:04;17.83;;;2.60;;
26038;SDS011;13815;52.374;4.882;2023-07-29T02:15:29;10.85;;;2.72;;
26038;SDS011;13815;52.374;4.882;2023-07-29T02:17:55;31.45;;;5.32;;
26038;SDS011;13815;52.374;4.882;2023-07-29T02:20:20;8.40;;;2.55;;
26038;SDS011;13815;52.374;4.882;2023-07-29T02:22:48;22.90;;;3.60;;
26038;SDS011;13815;52.374;4.882;2023-07-29T02:25:14;13.68;;;2.60;;
26038;SDS011;13815;52.374;4.882;2023-07-29T02:27:39;11.07;;;2.80;;
26038;SDS011;13815;52.374;4.882;2023-07-29T02:30:05;17.30;;;2.85;;
26038;SDS011;13815;52.374;4.882;2023-07-29T02:32:31;13.30;;;3.22;;
26038;SDS011;13815;52.374;4.882;2023-07-29T02:34:56;8.45;;;2.72;;
26038;SDS011;13815;52.374;4.882;2023-07-29T02:37:21;11.27;;;2.75;;
26038;SDS011;13815;52.374;4.882;2023-07-29T02:39:47;13.15;;;2.55;;
26038;SDS011;13815;52.374;4.882;2023-07-29T02:42:15;5.68;;;2.00;;
26038;SDS011;13815;52.374;4.882;2023-07-29T02:44:40;9.40;;;2.60;;
26038;SDS011;13815;52.374;4.882;2023-07-29T02:47:06;24.00;;;3.60;;
26038;SDS011;13815;52.374;4.882;2023-07-29T02:49:32;11.07;;;2.10;;
26038;SDS011;13815;52.374;4.882;2023-07-29T02:51:57;6.20;;;2.30;;
26038;SDS011;13815;52.374;4.882;2023-07-29T02:54:23;11.30;;;3.08;;
26038;SDS011;13815;52.374;4.882;2023-07-29T02:56:49;10.60;;;2.42;;
26038;SDS011;13815;52.374;4.882;2023-07-29T02:59:15;15.05;;;2.67;;
26038;SDS011;13815;52.374;4.882;2023-07-29T03:01:41;18.10;;;3.13;;
26038;SDS011;13815;52.374;4.882;2023-07-29T03:04:07;12.13;;;3.58;;
26038;SDS011;13815;52.374;4.882;2023-07-29T03:06:33;16.83;;;2.95;;
26038;SDS011;13815;52.374;4.882;2023-07-29T03:08:58;10.07;;;2.88;;
26038;SDS011;13815;52.374;4.882;2023-07-29T03:11:24;8.65;;;2.72;;
26038;SDS011;13815;52.374;4.882;2023-07-29T03:13:49;14.55;;;2.80;;
26038;SDS011;13815;52.374;4.882;2023-07-29T03:16:17;17.60;;;2.80;;
26038;SDS011;13815;52.374;4.882;2023-07-29T03:18:43;19.55;;;4.05;;
26038;SDS011;13815;52.374;4.882;2023-07-29T03:21:09;13.35;;;2.92;;
26038;SDS011;13815;52.374;4.882;2023-07-29T03:23:35;12.93;;;3.03;;
26038;SDS011;13815;52.374;4.882;2023-07-29T03:26:01;26.63;;;4.47;;
26038;SDS011;13815;52.374;4.882;2023-07-29T03:28:32;25.48;;;4.60;;
26038;SDS011;13815;52.374;4.882;2023-07-29T03:30:58;13.32;;;2.85;;
26038;SDS011;13815;52.374;4.882;2023-07-29T03:33:24;15.68;;;2.88;;
26038;SDS011;13815;52.374;4.882;2023-07-29T03:35:50;8.23;;;2.78;;
26038;SDS011;13815;52.374;4.882;2023-07-29T03:38:15;7.53;;;2.60;;
26038;SDS011;13815;52.374;4.882;2023-07-29T03:40:41;18.35;;;3.63;;
26038;SDS011;13815;52.374;4.882;2023-07-29T03:43:07;13.77;;;3.38;;
26038;SDS011;13815;52.374;4.882;2023-07-29T03:45:32;14.98;;;3.30;;
26038;SDS011;13815;52.374;4.882;2023-07-29T03:47:58;6.82;;;2.47;;
26038;SDS011;13815;52.374;4.882;2023-07-29T03:50:24;13.85;;;3.22;;
26038;SDS011;13815;52.374;4.882;2023-07-29T03:52:49;7.30;;;2.72;;
26038;SDS011;13815;52.374;4.882;2023-07-29T03:55:15;17.20;;;3.38;;
26038;SDS011;13815;52.374;4.882;2023-07-29T03:57:40;18.17;;;3.38;;
26038;SDS011;13815;52.374;4.882;2023-07-29T04:00:06;14.10;;;2.75;;
26038;SDS011;13815;52.374;4.882;2023-07-29T04:02:32;18.00;;;3.55;;
26038;SDS011;13815;52.374;4.882;2023-07-29T04:04:57;16.55;;;3.33;;
26038;SDS011;13815;52.374;4.882;2023-07-29T04:07:22;9.80;;;2.40;;
26038;SDS011;13815;52.374;4.882;2023-07-29T04:09:48;3.47;;;2.08;;
26038;SDS011;13815;52.374;4.882;2023-07-29T04:12:14;12.10;;;2.38;;
26038;SDS011;13815;52.374;4.882;2023-07-29T04:14:40;10.30;;;2.45;;
26038;SDS011;13815;52.374;4.882;2023-07-29T04:17:06;8.15;;;3.00;;
26038;SDS011;13815;52.374;4.882;2023-07-29T04:19:32;11.27;;;2.92;;
26038;SDS011;13815;52.374;4.882;2023-07-29T04:21:57;15.55;;;3.08;;
26038;SDS011;13815;52.374;4.882;2023-07-29T04:24:25;9.90;;;2.95;;
26038;SDS011;13815;52.374;4.882;2023-07-29T04:26:51;16.15;;;4.10;;
26038;SDS011;13815;52.374;4.882;2023-07-29T04:29:16;21.77;;;4.95;;
26038;SDS011;13815;52.374;4.882;2023-07-29T04:31:42;14.13;;;3.85;;
26038;SDS011;13815;52.374;4.882;2023-07-29T04:34:07;14.85;;;3.60;;
26038;SDS011;13815;52.374;4.882;2023-07-29T04:36:33;17.23;;;3.88;;
26038;SDS011;13815;52.374;4.882;2023-07-29T04:38:58;12.95;;;3.40;;
26038;SDS011;13815;52.374;4.882;2023-07-29T04:41:23;16.85;;;3.28;;
26038;SDS011;13815;52.374;4.882;2023-07-29T04:43:49;7.60;;;2.95;;
26038;SDS011;13815;52.374;4.882;2023-07-29T04:46:20;17.15;;;3.42;;
26038;SDS011;13815;52.374;4.882;2023-07-29T04:48:46;12.00;;;3.95;;
26038;SDS011;13815;52.374;4.882;2023-07-29T04:51:11;13.30;;;3.25;;
26038;SDS011;13815;52.374;4.882;2023-07-29T04:53:36;23.48;;;4.93;;
26038;SDS011;13815;52.374;4.882;2023-07-29T04:56:03;18.02;;;3.97;;
26038;SDS011;13815;52.374;4.882;2023-07-29T04:58:28;22.00;;;4.35;;
26038;SDS011;13815;52.374;4.882;2023-07-29T05:00:55;19.02;;;4.28;;
26038;SDS011;13815;52.374;4.882;2023-07-29T05:03:20;15.55;;;3.80;;
26038;SDS011;13815;52.374;4.882;2023-07-29T05:05:46;15.65;;;3.72;;
26038;SDS011;13815;52.374;4.882;2023-07-29T05:08:13;17.17;;;3.40;;
26038;SDS011;13815;52.374;4.882;2023-07-29T05:10:39;16.60;;;4.03;;
26038;SDS011;13815;52.374;4.882;2023-07-29T05:13:04;20.95;;;3.03;;
26038;SDS011;13815;52.374;4.882;2023-07-29T05:15:29;17.77;;;3.50;;
26038;SDS011;13815;52.374;4.882;2023-07-29T05:17:55;10.35;;;2.92;;
26038;SDS011;13815;52.374;4.882;2023-07-29T05:20:21;17.42;;;3.72;;
26038;SDS011;13815;52.374;4.882;2023-07-29T05:22:46;9.43;;;3.03;;
26038;SDS011;13815;52.374;4.882;2023-07-29T05:25:11;10.48;;;2.78;;
26038;SDS011;13815;52.374;4.882;2023-07-29T05:27:37;29.13;;;5.53;;
26038;SDS011;13815;52.374;4.882;2023-07-29T05:30:02;32.03;;;4.97;;
26038;SDS011;13815;52.374;4.882;2023-07-29T05:32:28;14.63;;;4.10;;
26038;SDS011;13815;52.374;4.882;2023-07-29T05:34:54;8.70;;;3.00;;
26038;SDS011;13815;52.374;4.882;2023-07-29T05:37:20;12.27;;;3.15;;
26038;SDS011;13815;52.374;4.882;2023-07-29T05:39:45;9.68;;;3.22;;
26038;SDS011;13815;52.374;4.882;2023-07-29T05:42:13;8.40;;;3.17;;
26038;SDS011;13815;52.374;4.882;2023-07-29T05:44:39;15.85;;;4.00;;
26038;SDS011;13815;52.374;4.882;2023-07-29T05:47:04;20.77;;;5.22;;
26038;SDS011;13815;52.374;4.882;2023-07-29T05:49:30;16.85;;;3.90;;
26038;SDS011;13815;52.374;4.882;2023-07-29T05:51:55;6.97;;;3.15;;
26038;SDS011;13815;52.374;4.882;2023-07-29T05:54:20;8.50;;;3.50;;
26038;SDS011;13815;52.374;4.882;2023-07-29T05:56:46;21.90;;;5.07;;
26038;SDS011;13815;52.374;4.882;2023-07-29T05:59:11;13.18;;;4.10;;
26038;SDS011;13815;52.374;4.882;2023-07-29T06:01:36;10.57;;;3.38;;
26038;SDS011;13815;52.374;4.882;2023-07-29T06:04:02;11.80;;;3.42;;
26038;SDS011;13815;52.374;4.882;2023-07-29T06:06:27;21.70;;;3.92;;
26038;SDS011;13815;52.374;4.882;2023-07-29T06:08:52;20.92;;;4.65;;
26038;SDS011;13815;52.374;4.882;2023-07-29T06:11:18;15.10;;;3.50;;
26038;SDS011;13815;52.374;4.882;2023-07-29T06:13:43;16.90;;;3.95;;
26038;SDS011;13815;52.374;4.882;2023-07-29T06:16:09;37.53;;;5.35;;
26038;SDS011;13815;52.374;4.882;2023-07-29T06:18:34;14.45;;;3.92;;
26038;SDS011;13815;52.374;4.882;2023-07-29T06:20:59;8.65;;;2.90;;
26038;SDS011;13815;52.374;4.882;2023-07-29T06:23:25;12.48;;;3.92;;
26038;SDS011;13815;52.374;4.882;2023-07-29T06:25:50;21.20;;;4.47;;
26038;SDS011;13815;52.374;4.882;2023-07-29T06:28:15;12.13;;;3.72;;
26038;SDS011;13815;52.374;4.882;2023-07-29T06:30:41;13.73;;;4.07;;
26038;SDS011;13815;52.374;4.882;2023-07-29T06:33:06;13.77;;;4.03;;
26038;SDS011;13815;52.374;4.882;2023-07-29T06:35:31;17.58;;;3.63;;
26038;SDS011;13815;52.374;4.882;2023-07-29T06:37:57;25.02;;;4.22;;
26038;SDS011;13815;52.374;4.882;2023-07-29T06:40:22;42.05;;;5.97;;
26038;SDS011;13815;52.374;4.882;2023-07-29T06:42:47;22.33;;;4.85;;
26038;SDS011;13815;52.374;4.882;2023-07-29T06:45:13;15.00;;;3.78;;
26038;SDS011;13815;52.374;4.882;2023-07-29T06:47:40;22.88;;;3.92;;
26038;SDS011;13815;52.374;4.882;2023-07-29T06:50:05;32.78;;;4.68;;
26038;SDS011;13815;52.374;4.882;2023-07-29T06:52:31;19.85;;;3.83;;
26038;SDS011;13815;52.374;4.882;2023-07-29T06:54:56;19.27;;;3.70;;
26038;SDS011;13815;52.374;4.882;2023-07-29T06:57:22;17.80;;;3.85;;
26038;SDS011;13815;52.374;4.882;2023-07-29T06:59:47;26.48;;;5.20;;
26038;SDS011;13815;52.374;4.882;2023-07-29T07:02:13;14.38;;;3.60;;
26038;SDS011;13815;52.374;4.882;2023-07-29T07:04:38;19.52;;;4.22;;
26038;SDS011;13815;52.374;4.882;2023-07-29T07:07:04;25.60;;;4.03;;
26038;SDS011;13815;52.374;4.882;2023-07-29T07:09:29;21.83;;;4.13;;
26038;SDS011;13815;52.374;4.882;2023-07-29T07:11:55;11.23;;;3.03;;
26038;SDS011;13815;52.374;4.882;2023-07-29T07:14:20;17.00;;;3.53;;
26038;SDS011;13815;52.374;4.882;2023-07-29T07:16:45;21.23;;;3.60;;
26038;SDS011;13815;52.374;4.882;2023-07-29T07:19:11;17.45;;;2.88;;
26038;SDS011;13815;52.374;4.882;2023-07-29T07:21:36;15.73;;;2.90;;
26038;SDS011;13815;52.374;4.882;2023-07-29T07:24:01;15.85;;;3.05;;
26038;SDS011;13815;52.374;4.882;2023-07-29T07:26:27;19.88;;;3.70;;
26038;SDS011;13815;52.374;4.882;2023-07-29T07:28:52;16.92;;;3.80;;
26038;SDS011;13815;52.374;4.882;2023-07-29T07:31:18;14.40;;;2.80;;
26038;SDS011;13815;52.374;4.882;2023-07-29T07:33:44;36.28;;;5.30;;
26038;SDS011;13815;52.374;4.882;2023-07-29T07:36:09;23.77;;;4.63;;
26038;SDS011;13815;52.374;4.882;2023-07-29T07:38:35;21.00;;;4.50;;
26038;SDS011;13815;52.374;4.882;2023-07-29T07:41:00;33.65;;;5.43;;
26038;SDS011;13815;52.374;4.882;2023-07-29T07:43:25;28.50;;;4.75;;
26038;SDS011;13815;52.374;4.882;2023-07-29T07:45:51;35.88;;;5.35;;
26038;SDS011;13815;52.374;4.882;2023-07-29T07:48:22;32.50;;;5.65;;
26038;SDS011;13815;52.374;4.882;2023-07-29T07:50:47;26.02;;;4.80;;
26038;SDS011;13815;52.374;4.882;2023-07-29T07:53:12;29.92;;;5.82;;
26038;SDS011;13815;52.374;4.882;2023-07-29T07:55:38;23.55;;;5.40;;
26038;SDS011;13815;52.374;4.882;2023-07-29T07:58:03;25.17;;;4.43;;
26038;SDS011;13815;52.374;4.882;2023-07-29T08:00:29;30.75;;;4.57;;
26038;SDS011;13815;52.374;4.882;2023-07-29T08:02:54;14.70;;;2.78;;
26038;SDS011;13815;52.374;4.882;2023-07-29T08:05:19;14.32;;;3.13;;
26038;SDS011;13815;52.374;4.882;2023-07-29T08:07:45;32.13;;;4.40;;
26038;SDS011;13815;52.374;4.882;2023-07-29T08:10:10;18.77;;;2.90;;
26038;SDS011;13815;52.374;4.882;2023-07-29T08:12:35;20.23;;;3.75;;
26038;SDS011;13815;52.374;4.882;2023-07-29T08:15:01;27.35;;;3.35;;
26038;SDS011;13815;52.374;4.882;2023-07-29T08:17:26;14.80;;;3.03;;
26038;SDS011;13815;52.374;4.882;2023-07-29T08:19:51;17.13;;;3.17;;
26038;SDS011;13815;52.374;4.882;2023-07-29T08:22:17;30.05;;;3.58;;
26038;SDS011;13815;52.374;4.882;2023-07-29T08:24:42;30.83;;;4.63;;
26038;SDS011;13815;52.374;4.882;2023-07-29T08:27:08;19.98;;;3.30;;
26038;SDS011;13815;52.374;4.882;2023-07-29T08:29:33;27.30;;;4.10;;
26038;SDS011;13815;52.374;4.882;2023-07-29T08:31:59;14.07;;;2.80;;
26038;SDS011;13815;52.374;4.882;2023-07-29T08:34:24;29.33;;;3.63;;
26038;SDS011;13815;52.374;4.882;2023-07-29T08:36:49;28.70;;;4.25;;
26038;SDS011;13815;52.374;4.882;2023-07-29T08:39:15;30.20;;;3.42;;
26038;SDS011;13815;52.374;4.882;2023-07-29T08:41:51;13.68;;;2.85;;
26038;SDS011;13815;52.374;4.882;2023-07-29T08:44:20;29.77;;;4.40;;
26038;SDS011;13815;52.374;4.882;2023-07-29T08:46:50;29.15;;;4.53;;
26038;SDS011;13815;52.374;4.882;2023-07-29T08:49:16;40.33;;;4.85;;
26038;SDS011;13815;52.374;4.882;2023-07-29T08:51:48;27.52;;;4.03;;
26038;SDS011;13815;52.374;4.882;2023-07-29T08:54:14;28.13;;;3.53;;
26038;SDS011;13815;52.374;4.882;2023-07-29T08:56:43;38.10;;;4.97;;
26038;SDS011;13815;52.374;4.882;2023-07-29T08:59:08;32.38;;;3.88;;
26038;SDS011;13815;52.374;4.882;2023-07-29T09:01:35;29.15;;;3.83;;
26038;SDS011;13815;52.374;4.882;2023-07-29T09:04:01;29.23;;;4.13;;
26038;SDS011;13815;52.374;4.882;2023-07-29T09:06:27;39.50;;;4.43;;
26038;SDS011;13815;52.374;4.882;2023-07-29T09:08:53;33.03;;;3.97;;
26038;SDS011;13815;52.374;4.882;2023-07-29T09:11:21;44.95;;;6.25;;
26038;SDS011;13815;52.374;4.882;2023-07-29T09:13:46;30.85;;;4.20;;
26038;SDS011;13815;52.374;4.882;2023-07-29T09:16:12;36.20;;;5.20;;
26038;SDS011;13815;52.374;4.882;2023-07-29T09:18:38;31.77;;;4.35;;
26038;SDS011;13815;52.374;4.882;2023-07-29T09:21:03;18.67;;;3.15;;
26038;SDS011;13815;52.374;4.882;2023-07-29T09:23:38;30.50;;;4.47;;
26038;SDS011;13815;52.374;4.882;2023-07-29T09:26:05;33.65;;;4.28;;
26038;SDS011;13815;52.374;4.882;2023-07-29T09:28:34;49.50;;;6.10;;
26038;SDS011;13815;52.374;4.882;2023-07-29T09:34:22;38.65;;;4.70;;
26038;SDS011;13815;52.374;4.882;2023-07-29T09:36:47;25.20;;;3.83;;
26038;SDS011;13815;52.374;4.882;2023-07-29T09:39:15;36.38;;;5.32;;
26038;SDS011;13815;52.374;4.882;2023-07-29T09:41:40;29.05;;;4.63;;
26038;SDS011;13815;52.374;4.882;2023-07-29T09:44:06;41.47;;;5.78;;
26038;SDS011;13815;52.374;4.882;2023-07-29T09:46:33;36.35;;;4.93;;
26038;SDS011;13815;52.374;4.882;2023-07-29T09:48:59;20.50;;;3.70;;
26038;SDS011;13815;52.374;4.882;2023-07-29T09:51:27;37.90;;;4.90;;
26038;SDS011;13815;52.374;4.882;2023-07-29T09:53:52;48.00;;;5.65;;
26038;SDS011;13815;52.374;4.882;2023-07-29T09:56:17;42.25;;;5.78;;
26038;SDS011;13815;52.374;4.882;2023-07-29T09:58:46;34.80;;;4.75;;
26038;SDS011;13815;52.374;4.882;2023-07-29T10:01:13;30.67;;;4.38;;
26038;SDS011;13815;52.374;4.882;2023-07-29T10:03:39;40.88;;;5.25;;
26038;SDS011;13815;52.374;4.882;2023-07-29T10:06:05;30.55;;;3.70;;
26038;SDS011;13815;52.374;4.882;2023-07-29T10:08:32;33.15;;;4.43;;
26038;SDS011;13815;52.374;4.882;2023-07-29T10:11:00;25.25;;;3.58;;
26038;SDS011;13815;52.374;4.882;2023-07-29T10:13:26;43.30;;;7.32;;
26038;SDS011;13815;52.374;4.882;2023-07-29T10:15:53;50.65;;;6.15;;
26038;SDS011;13815;52.374;4.882;2023-07-29T10:18:19;78.00;;;7.30;;
26038;SDS011;13815;52.374;4.882;2023-07-29T10:20:46;34.13;;;4.45;;
26038;SDS011;13815;52.374;4.882;2023-07-29T10:23:13;37.42;;;5.32;;
26038;SDS011;13815;52.374;4.882;2023-07-29T10:25:43;36.15;;;5.43;;
26038;SDS011;13815;52.374;4.882;2023-07-29T10:28:12;39.60;;;5.43;;
26038;SDS011;13815;52.374;4.882;2023-07-29T10:30:38;40.28;;;5.05;;
26038;SDS011;13815;52.374;4.882;2023-07-29T10:33:06;37.42;;;5.80;;
26038;SDS011;13815;52.374;4.882;2023-07-29T10:35:32;51.30;;;6.15;;
26038;SDS011;13815;52.374;4.882;2023-07-29T10:37:58;26.95;;;4.53;;
26038;SDS011;13815;52.374;4.882;2023-07-29T10:40:24;42.22;;;5.18;;
26038;SDS011;13815;52.374;4.882;2023-07-29T10:45:51;35.42;;;4.93;;
26038;SDS011;13815;52.374;4.882;2023-07-29T10:53:57;50.13;;;5.90;;
26038;SDS011;13815;52.374;4.882;2023-07-29T10:56:28;82.05;;;17.27;;
26038;SDS011;13815;52.374;4.882;2023-07-29T10:58:55;44.85;;;6.80;;
26038;SDS011;13815;52.374;4.882;2023-07-29T11:01:26;30.08;;;4.63;;
26038;SDS011;13815;52.374;4.882;2023-07-29T11:14:59;42.80;;;5.00;;
26038;SDS011;13815;52.374;4.882;2023-07-29T11:17:28;61.25;;;6.65;;
26038;SDS011;13815;52.374;4.882;2023-07-29T11:19:55;27.08;;;3.53;;
26038;SDS011;13815;52.374;4.882;2023-07-29T11:22:22;46.80;;;5.45;;
26038;SDS011;13815;52.374;4.882;2023-07-29T11:24:49;42.85;;;5.28;;
26038;SDS011;13815;52.374;4.882;2023-07-29T11:27:14;36.10;;;4.57;;
26038;SDS011;13815;52.374;4.882;2023-07-29T11:29:39;44.80;;;4.90;;
26038;SDS011;13815;52.374;4.882;2023-07-29T11:32:05;43.03;;;5.25;;
26038;SDS011;13815;52.374;4.882;2023-07-29T11:34:34;40.75;;;4.65;;
26038;SDS011;13815;52.374;4.882;2023-07-29T11:37:02;24.42;;;3.30;;
26038;SDS011;13815;52.374;4.882;2023-07-29T11:39:27;45.38;;;5.32;;
26038;SDS011;13815;52.374;4.882;2023-07-29T11:41:53;55.35;;;6.20;;
26038;SDS011;13815;52.374;4.882;2023-07-29T11:44:18;37.10;;;4.50;;
26038;SDS011;13815;52.374;4.882;2023-07-29T11:46:44;40.05;;;4.82;;
26038;SDS011;13815;52.374;4.882;2023-07-29T11:49:09;38.38;;;5.03;;
26038;SDS011;13815;52.374;4.882;2023-07-29T11:51:35;53.38;;;5.70;;
26038;SDS011;13815;52.374;4.882;2023-07-29T11:54:01;48.03;;;5.55;;
26038;SDS011;13815;52.374;4.882;2023-07-29T11:56:27;44.58;;;5.38;;
26038;SDS011;13815;52.374;4.882;2023-07-29T11:58:56;54.70;;;6.28;;
26038;SDS011;13815;52.374;4.882;2023-07-29T12:01:22;41.97;;;4.75;;
26038;SDS011;13815;52.374;4.882;2023-07-29T12:03:47;54.67;;;6.35;;
26038;SDS011;13815;52.374;4.882;2023-07-29T12:06:14;67.32;;;8.45;;
26038;SDS011;13815;52.374;4.882;2023-07-29T12:08:40;46.95;;;5.38;;
26038;SDS011;13815;52.374;4.882;2023-07-29T12:11:05;35.42;;;4.15;;
26038;SDS011;13815;52.374;4.882;2023-07-29T12:13:31;36.65;;;4.55;;
26038;SDS011;13815;52.374;4.882;2023-07-29T12:16:03;31.05;;;3.70;;
26038;SDS011;13815;52.374;4.882;2023-07-29T12:18:32;50.33;;;5.03;;
26038;SDS011;13815;52.374;4.882;2023-07-29T12:20:57;37.05;;;4.25;;
26038;SDS011;13815;52.374;4.882;2023-07-29T12:23:26;35.67;;;4.20;;
26038;SDS011;13815;52.374;4.882;2023-07-29T12:25:56;28.55;;;3.83;;
26038;SDS011;13815;52.374;4.882;2023-07-29T12:28:22;51.13;;;8.45;;
26038;SDS011;13815;52.374;4.882;2023-07-29T12:30:48;68.53;;;6.75;;
26038;SDS011;13815;52.374;4.882;2023-07-29T12:33:33;41.28;;;4.80;;
26038;SDS011;13815;52.374;4.882;2023-07-29T12:36:00;45.35;;;4.65;;
26038;SDS011;13815;52.374;4.882;2023-07-29T12:38:26;74.72;;;7.22;;
26038;SDS011;13815;52.374;4.882;2023-07-29T12:40:51;68.57;;;6.82;;
26038;SDS011;13815;52.374;4.882;2023-07-29T12:43:17;39.60;;;4.10;;
26038;SDS011;13815;52.374;4.882;2023-07-29T12:45:56;60.78;;;5.80;;
26038;SDS011;13815;52.374;4.882;2023-07-29T12:48:22;34.40;;;4.03;;
26038;SDS011;13815;52.374;4.882;2023-07-29T12:54:09;30.27;;;3.20;;
26038;SDS011;13815;52.374;4.882;2023-07-29T12:56:34;39.22;;;4.28;;
26038;SDS011;13815;52.374;4.882;2023-07-29T12:59:00;36.42;;;4.28;;
26038;SDS011;13815;52.374;4.882;2023-07-29T13:04:19;40.63;;;4.60;;
26038;SDS011;13815;52.374;4.882;2023-07-29T13:06:44;59.30;;;5.63;;
26038;SDS011;13815;52.374;4.882;2023-07-29T13:09:10;47.63;;;4.88;;
26038;SDS011;13815;52.374;4.882;2023-07-29T13:11:35;47.88;;;4.55;;
26038;SDS011;13815;52.374;4.882;2023-07-29T13:14:01;31.42;;;4.10;;
26038;SDS011;13815;52.374;4.882;2023-07-29T13:16:27;29.85;;;3.67;;
26038;SDS011;13815;52.374;4.882;2023-07-29T13:18:53;58.85;;;5.88;;
26038;SDS011;13815;52.374;4.882;2023-07-29T13:21:19;59.97;;;6.60;;
26038;SDS011;13815;52.374;4.882;2023-07-29T13:23:44;52.58;;;5.30;;
26038;SDS011;13815;52.374;4.882;2023-07-29T13:26:10;52.63;;;5.57;;
26038;SDS011;13815;52.374;4.882;2023-07-29T13:28:36;70.63;;;7.25;;
26038;SDS011;13815;52.374;4.882;2023-07-29T13:31:01;57.83;;;6.35;;
26038;SDS011;13815;52.374;4.882;2023-07-29T13:33:28;40.03;;;5.35;;
26038;SDS011;13815;52.374;4.882;2023-07-29T13:35:53;62.55;;;6.75;;
26038;SDS011;13815;52.374;4.882;2023-07-29T13:38:21;32.55;;;4.10;;
26038;SDS011;13815;52.374;4.882;2023-07-29T13:40:47;39.25;;;5.28;;
26038;SDS011;13815;52.374;4.882;2023-07-29T13:43:15;44.40;;;5.32;;
26038;SDS011;13815;52.374;4.882;2023-07-29T13:45:41;35.45;;;4.55;;
26038;SDS011;13815;52.374;4.882;2023-07-29T13:48:07;39.63;;;5.00;;
26038;SDS011;13815;52.374;4.882;2023-07-29T13:50:32;38.03;;;4.78;;
26038;SDS011;13815;52.374;4.882;2023-07-29T13:52:57;39.30;;;5.50;;
26038;SDS011;13815;52.374;4.882;2023-07-29T13:55:23;55.42;;;6.82;;
26038;SDS011;13815;52.374;4.882;2023-07-29T13:57:48;40.72;;;5.43;;
26038;SDS011;13815;52.374;4.882;2023-07-29T14:00:14;34.25;;;5.45;;
26038;SDS011;13815;52.374;4.882;2023-07-29T14:02:39;30.05;;;5.15;;
26038;SDS011;13815;52.374;4.882;2023-07-29T14:05:06;33.72;;;5.78;;
26038;SDS011;13815;52.374;4.882;2023-07-29T14:07:32;48.42;;;7.10;;
26038;SDS011;13815;52.374;4.882;2023-07-29T14:09:57;38.35;;;6.13;;
26038;SDS011;13815;52.374;4.882;2023-07-29T14:12:23;54.83;;;8.60;;
26038;SDS011;13815;52.374;4.882;2023-07-29T14:14:48;42.63;;;7.90;;
26038;SDS011;13815;52.374;4.882;2023-07-29T14:17:14;52.38;;;8.63;;
26038;SDS011;13815;52.374;4.882;2023-07-29T14:19:39;66.00;;;10.63;;
26038;SDS011;13815;52.374;4.882;2023-07-29T14:22:04;58.83;;;10.82;;
26038;SDS011;13815;52.374;4.882;2023-07-29T14:24:30;69.07;;;14.60;;
26038;SDS011;13815;52.374;4.882;2023-07-29T14:27:02;76.18;;;18.35;;
26038;SDS011;13815;52.374;4.882;2023-07-29T14:29:28;74.10;;;19.60;;
26038;SDS011;13815;52.374;4.882;2023-07-29T14:31:53;82.85;;;20.73;;
26038;SDS011;13815;52.374;4.882;2023-07-29T14:34:18;41.63;;;17.90;;
26038;SDS011;13815;52.374;4.882;2023-07-29T14:36:44;70.95;;;19.90;;
26038;SDS011;13815;52.374;4.882;2023-07-29T14:39:09;76.55;;;20.60;;
26038;SDS011;13815;52.374;4.882;2023-07-29T14:41:35;62.83;;;19.85;;
26038;SDS011;13815;52.374;4.882;2023-07-29T14:44:00;80.75;;;21.17;;
26038;SDS011;13815;52.374;4.882;2023-07-29T14:46:25;69.75;;;21.13;;
26038;SDS011;13815;52.374;4.882;2023-07-29T14:48:51;64.30;;;21.42;;
26038;SDS011;13815;52.374;4.882;2023-07-29T14:51:16;87.25;;;24.25;;
26038;SDS011;13815;52.374;4.882;2023-07-29T14:53:41;63.97;;;22.13;;
26038;SDS011;13815;52.374;4.882;2023-07-29T14:56:08;65.07;;;21.77;;
26038;SDS011;13815;52.374;4.882;2023-07-29T14:58:33;49.80;;;20.58;;
26038;SDS011;13815;52.374;4.882;2023-07-29T15:00:58;61.65;;;21.45;;
26038;SDS011;13815;52.374;4.882;2023-07-29T15:03:24;81.95;;;22.33;;
26038;SDS011;13815;52.374;4.882;2023-07-29T15:05:50;75.15;;;21.95;;
26038;SDS011;13815;52.374;4.882;2023-07-29T15:08:18;68.32;;;22.58;;